createdAt,value
2023-01-26T00:01:23.984Z,32.92
2023-01-26T00:03:51.278Z,33.00
2023-01-26T00:06:20.035Z,32.97
2023-01-26T00:08:49.965Z,33.10
2023-01-26T00:11:19.153Z,33.21
2023-01-26T00:13:49.460Z,33.11
2023-01-26T00:16:16.215Z,33.47
2023-01-26T00:18:43.574Z,34.05
2023-01-26T00:21:14.662Z,34.07
2023-01-26T00:23:41.916Z,34.56
2023-01-26T00:26:15.378Z,34.28
2023-01-26T00:28:42.377Z,34.77
2023-01-26T00:31:14.112Z,34.62
2023-01-26T00:33:40.903Z,34.57
2023-01-26T00:36:10.285Z,34.90
2023-01-26T00:38:37.082Z,34.88
2023-01-26T00:41:03.778Z,34.90
2023-01-26T00:43:30.411Z,34.78
2023-01-26T00:45:56.977Z,34.97
2023-01-26T00:48:24.790Z,34.65
2023-01-26T00:50:52.917Z,34.67
2023-01-26T00:53:19.710Z,35.05
2023-01-26T00:55:46.364Z,34.77
2023-01-26T00:58:13.091Z,34.61
2023-01-26T01:00:39.996Z,34.65
2023-01-26T01:03:07.317Z,34.61
2023-01-26T01:05:34.950Z,34.18
2023-01-26T01:08:02.174Z,34.09
2023-01-26T01:10:29.203Z,34.39
2023-01-26T01:12:56.675Z,34.25
2023-01-26T01:15:23.920Z,34.08
2023-01-26T01:17:50.950Z,34.16
2023-01-26T01:20:17.825Z,33.97
2023-01-26T01:22:46.499Z,34.14
2023-01-26T01:25:13.085Z,34.25
2023-01-26T01:27:39.730Z,33.94
2023-01-26T01:30:08.252Z,34.18
2023-01-26T01:32:36.474Z,33.88
2023-01-26T01:35:03.866Z,34.08
2023-01-26T01:37:30.937Z,33.91
2023-01-26T01:39:57.685Z,34.04
2023-01-26T01:42:24.351Z,34.17
2023-01-26T01:45:35.901Z,33.85
2023-01-26T01:48:07.178Z,34.08
2023-01-26T01:50:39.516Z,33.94
2023-01-26T01:53:10.488Z,33.93
2023-01-26T01:55:37.159Z,34.19
2023-01-26T01:58:05.955Z,33.86
2023-01-26T02:00:32.763Z,34.13
2023-01-26T02:03:19.031Z,34.08
2023-01-26T02:06:07.110Z,34.20
2023-01-26T02:08:35.755Z,34.34
2023-01-26T02:11:10.355Z,34.95
2023-01-26T02:13:37.568Z,35.15
2023-01-26T02:16:04.590Z,35.07
2023-01-26T02:18:31.362Z,34.95
2023-01-26T02:21:02.394Z,34.76
2023-01-26T02:23:40.938Z,34.67
2023-01-26T02:26:12.766Z,35.06
2023-01-26T02:28:40.660Z,36.05
2023-01-26T02:31:09.154Z,36.98
2023-01-26T02:33:36.432Z,38.87
2023-01-26T02:36:06.297Z,41.00
2023-01-26T02:38:46.643Z,41.69
2023-01-26T02:41:37.406Z,42.39
2023-01-26T02:44:07.615Z,42.88
2023-01-26T02:46:34.245Z,42.80
2023-01-26T02:49:19.568Z,42.52
2023-01-26T02:51:47.294Z,41.89
2023-01-26T02:54:33.974Z,41.31
2023-01-26T02:57:04.035Z,41.28
2023-01-26T02:59:30.659Z,40.67
2023-01-26T03:01:58.230Z,40.32
2023-01-26T03:04:25.185Z,39.94
2023-01-26T03:06:52.521Z,39.78
2023-01-26T03:09:19.198Z,39.25
2023-01-26T03:11:46.999Z,39.07
2023-01-26T03:14:15.377Z,38.79
2023-01-26T03:16:42.482Z,38.14
2023-01-26T03:19:30.958Z,37.71
2023-01-26T03:22:16.696Z,37.42
2023-01-26T03:25:01.988Z,37.04
2023-01-26T03:27:32.158Z,36.55
2023-01-26T03:30:02.566Z,36.48
2023-01-26T03:32:30.291Z,36.29
2023-01-26T03:34:57.295Z,36.06
2023-01-26T03:37:24.457Z,36.01
2023-01-26T03:40:23.753Z,35.71
2023-01-26T03:43:10.187Z,35.69
2023-01-26T03:45:55.513Z,35.47
2023-01-26T03:48:43.315Z,35.55
2023-01-26T03:51:28.689Z,35.21
2023-01-26T03:54:15.133Z,35.23
2023-01-26T03:56:41.796Z,34.93
2023-01-26T03:59:15.372Z,34.89
2023-01-26T04:02:04.493Z,35.01
2023-01-26T04:04:50.916Z,35.05
2023-01-26T04:07:38.897Z,35.07
2023-01-26T04:10:06.317Z,35.14
2023-01-26T04:12:33.375Z,35.31
2023-01-26T04:15:33.900Z,35.42
2023-01-26T04:18:25.246Z,35.34
2023-01-26T04:21:10.663Z,35.51
2023-01-26T04:23:40.523Z,34.99
2023-01-26T04:26:07.184Z,35.17
2023-01-26T04:28:35.969Z,35.24
2023-01-26T04:31:04.608Z,35.19
2023-01-26T04:33:32.852Z,34.81
2023-01-26T04:36:06.617Z,34.64
2023-01-26T04:38:35.398Z,34.62
2023-01-26T04:41:02.751Z,34.65
2023-01-26T04:43:32.977Z,34.57
2023-01-26T04:46:03.321Z,34.54
2023-01-26T04:48:30.805Z,34.48
2023-01-26T04:50:59.880Z,34.74
2023-01-26T04:53:27.021Z,34.53
2023-01-26T04:55:54.190Z,34.60
2023-01-26T04:58:21.090Z,34.35
2023-01-26T05:00:55.157Z,34.48
2023-01-26T05:03:22.574Z,34.39
2023-01-26T05:05:50.901Z,34.53
2023-01-26T05:08:20.248Z,34.25
2023-01-26T05:10:47.389Z,34.50
2023-01-26T05:13:24.065Z,34.52
2023-01-26T05:16:29.136Z,34.39
2023-01-26T05:18:58.620Z,34.08
2023-01-26T05:21:40.463Z,34.26
2023-01-26T05:24:11.196Z,34.05
2023-01-26T05:27:16.756Z,34.40
2023-01-26T05:29:44.383Z,34.47
2023-01-26T05:32:11.209Z,34.23
2023-01-26T05:34:37.912Z,34.53
2023-01-26T05:37:05.839Z,34.21
2023-01-26T05:39:33.732Z,34.44
2023-01-26T05:42:01.872Z,34.57
2023-01-26T05:44:34.297Z,34.68
2023-01-26T05:47:07.762Z,34.91
2023-01-26T05:49:34.931Z,35.14
2023-01-26T05:52:01.490Z,35.34
2023-01-26T05:54:29.830Z,35.03
2023-01-26T05:56:57.600Z,35.23
2023-01-26T05:59:25.821Z,35.41
2023-01-26T06:01:52.925Z,35.44
2023-01-26T06:04:19.824Z,35.70
2023-01-26T06:06:58.250Z,35.46
2023-01-26T06:09:30.192Z,35.62
2023-01-26T06:12:22.008Z,35.29
2023-01-26T06:14:58.381Z,35.43
2023-01-26T06:17:33.776Z,35.93
2023-01-26T06:20:03.504Z,35.92
2023-01-26T06:22:31.627Z,36.23
2023-01-26T06:24:59.370Z,36.33
2023-01-26T06:27:25.945Z,36.69
2023-01-26T06:29:53.107Z,36.19
2023-01-26T06:32:20.071Z,35.76
2023-01-26T06:34:53.317Z,35.88
2023-01-26T06:37:20.816Z,35.42
2023-01-26T06:39:48.181Z,35.12
2023-01-26T06:42:14.839Z,34.82
2023-01-26T06:44:41.480Z,34.65
2023-01-26T06:47:08.680Z,34.62
2023-01-26T06:49:38.797Z,34.54
2023-01-26T06:52:28.198Z,35.11
2023-01-26T06:55:00.404Z,35.49
2023-01-26T06:57:48.322Z,35.24
2023-01-26T07:00:50.285Z,35.42
2023-01-26T07:03:26.946Z,35.10
2023-01-26T07:05:53.522Z,35.08
2023-01-26T07:08:20.080Z,35.18
2023-01-26T07:10:46.704Z,34.98
2023-01-26T07:13:13.215Z,35.32
2023-01-26T07:15:39.943Z,35.82
2023-01-26T07:18:06.594Z,35.60
2023-01-26T07:20:33.233Z,35.76
2023-01-26T07:23:00.868Z,35.33
2023-01-26T07:25:27.676Z,35.24
2023-01-26T07:27:58.716Z,35.40
2023-01-26T07:30:26.395Z,35.11
2023-01-26T07:32:53.323Z,35.12
2023-01-26T07:35:19.947Z,35.35
2023-01-26T07:37:46.576Z,36.13
2023-01-26T07:40:13.656Z,36.49
2023-01-26T07:42:40.274Z,36.67
2023-01-26T07:45:20.875Z,37.26
2023-01-26T07:47:48.063Z,37.11
2023-01-26T07:50:14.910Z,37.81
2023-01-26T07:52:43.623Z,37.99
2023-01-26T07:55:10.494Z,38.39
2023-01-26T07:57:37.102Z,38.44
2023-01-26T08:00:04.608Z,38.28
2023-01-26T08:02:38.349Z,38.42
2023-01-26T08:05:05.389Z,38.24
2023-01-26T08:07:32.006Z,38.14
2023-01-26T08:09:59.186Z,38.41
2023-01-26T08:12:26.535Z,38.22
2023-01-26T08:14:53.108Z,38.06
2023-01-26T08:17:19.665Z,38.66
2023-01-26T08:19:46.932Z,39.13
2023-01-26T08:22:13.917Z,39.15
2023-01-26T08:24:40.564Z,39.13
2023-01-26T08:27:07.169Z,39.16
2023-01-26T08:29:33.810Z,38.94
2023-01-26T08:32:03.131Z,39.18
2023-01-26T08:34:29.996Z,38.88
2023-01-26T08:36:56.523Z,38.57
2023-01-26T08:39:23.148Z,38.61
2023-01-26T08:41:49.967Z,38.35
2023-01-26T08:44:16.624Z,38.30
2023-01-26T08:46:46.107Z,38.50
2023-01-26T08:49:12.988Z,38.32
2023-01-26T08:51:39.492Z,38.21
2023-01-26T08:54:10.697Z,38.30
2023-01-26T08:56:37.366Z,38.02
2023-01-26T08:59:03.863Z,38.03
2023-01-26T09:01:30.505Z,37.82
2023-01-26T09:03:58.305Z,37.57
2023-01-26T09:06:25.360Z,37.87
2023-01-26T09:08:51.856Z,37.61
2023-01-26T09:11:18.497Z,37.53
2023-01-26T09:13:45.010Z,38.17
2023-01-26T09:16:17.473Z,37.81
2023-01-26T09:18:44.133Z,37.90
2023-01-26T09:21:10.719Z,37.97
2023-01-26T09:23:38.656Z,38.12
2023-01-26T09:26:05.469Z,38.46
2023-01-26T09:28:32.157Z,38.33
2023-01-26T09:31:04.787Z,37.64
2023-01-26T09:33:31.838Z,37.66
2023-01-26T09:36:06.679Z,37.16
2023-01-26T09:38:33.545Z,37.08
2023-01-26T09:41:33.228Z,37.21
2023-01-26T09:44:23.394Z,36.76
2023-01-26T09:47:15.895Z,36.39
2023-01-26T09:49:57.558Z,36.32
2023-01-26T09:53:03.318Z,36.40
2023-01-26T09:55:31.666Z,36.48
2023-01-26T09:58:05.496Z,36.14
2023-01-26T10:00:52.082Z,36.27
2023-01-26T10:03:50.313Z,36.29
2023-01-26T10:06:29.521Z,36.18
2023-01-26T10:09:30.023Z,36.17
2023-01-26T10:12:00.941Z,36.05
2023-01-26T10:14:40.551Z,35.99
2023-01-26T10:17:15.197Z,36.03
2023-01-26T10:19:55.721Z,36.04
2023-01-26T10:22:45.292Z,36.33
2023-01-26T10:25:39.434Z,36.20
2023-01-26T10:28:30.593Z,36.26
2023-01-26T10:30:57.619Z,36.27
2023-01-26T10:33:33.703Z,35.83
2023-01-26T10:36:06.616Z,36.01
2023-01-26T10:38:33.198Z,35.78
2023-01-26T10:41:04.981Z,35.60
2023-01-26T10:43:36.229Z,35.00
2023-01-26T10:46:04.482Z,35.10
2023-01-26T10:48:31.320Z,34.75
2023-01-26T10:51:19.993Z,34.71
2023-01-26T10:53:46.687Z,34.89
2023-01-26T10:56:20.271Z,34.69
2023-01-26T10:58:52.568Z,34.72
2023-01-26T11:01:23.023Z,34.26
2023-01-26T11:04:04.624Z,34.30
2023-01-26T11:06:31.816Z,34.22
2023-01-26T11:09:13.679Z,33.96
2023-01-26T11:11:41.057Z,33.79
2023-01-26T11:14:19.279Z,33.65
2023-01-26T11:17:05.716Z,32.43
2023-01-26T11:19:57.587Z,30.59
2023-01-26T11:22:52.274Z,30.44
2023-01-26T11:25:29.399Z,30.39
2023-01-26T11:28:00.313Z,30.78
2023-01-26T11:30:56.023Z,31.11
2023-01-26T11:33:28.511Z,31.12
2023-01-26T11:36:04.466Z,31.49
2023-01-26T11:38:39.090Z,31.30
2023-01-26T11:41:20.814Z,31.79
2023-01-26T11:43:50.202Z,31.87
2023-01-26T11:46:42.926Z,32.08
2023-01-26T11:49:34.180Z,32.01
2023-01-26T11:52:25.049Z,32.16
2023-01-26T11:55:15.033Z,32.18
2023-01-26T11:57:53.761Z,32.60
2023-01-26T12:00:31.223Z,32.57
2023-01-26T12:03:06.291Z,32.64
2023-01-26T12:05:46.231Z,32.62
2023-01-26T12:08:22.274Z,32.74
2023-01-26T12:10:58.054Z,32.88
2023-01-26T12:13:40.660Z,32.83
2023-01-26T12:16:16.782Z,33.13
2023-01-26T12:19:09.259Z,33.10
2023-01-26T12:21:41.701Z,33.04
2023-01-26T12:25:01.099Z,33.31
2023-01-26T12:27:50.449Z,33.40
2023-01-26T12:30:23.808Z,33.30
2023-01-26T12:32:51.216Z,33.71
2023-01-26T12:35:32.624Z,33.52
2023-01-26T12:38:18.023Z,33.26
2023-01-26T12:40:52.847Z,33.21
2023-01-26T12:43:37.649Z,33.35
2023-01-26T12:46:07.972Z,33.43
2023-01-26T12:48:41.520Z,33.28
2023-01-26T12:51:21.898Z,33.33
2023-01-26T12:53:58.184Z,33.39
2023-01-26T12:56:49.721Z,33.84
2023-01-26T12:59:39.429Z,33.45
2023-01-26T13:02:15.184Z,33.45
2023-01-26T13:04:43.729Z,33.97
2023-01-26T13:07:31.093Z,33.92
2023-01-26T13:10:17.687Z,34.13
2023-01-26T13:13:00.692Z,34.56
2023-01-26T13:15:30.364Z,34.70
2023-01-26T13:18:04.430Z,35.21
2023-01-26T13:20:40.312Z,35.28
2023-01-26T13:23:28.575Z,35.80
2023-01-26T13:26:16.803Z,36.11
2023-01-26T13:28:45.097Z,36.35
2023-01-26T13:31:12.737Z,36.64
2023-01-26T13:33:41.148Z,36.69
2023-01-26T13:36:16.276Z,37.11
2023-01-26T13:38:47.522Z,37.18
2023-01-26T13:41:19.487Z,37.51
2023-01-26T13:43:52.272Z,37.66
2023-01-26T13:46:23.097Z,37.57
2023-01-26T13:48:55.431Z,37.45
2023-01-26T13:51:29.086Z,37.59
2023-01-26T13:54:13.446Z,37.92
2023-01-26T13:56:59.048Z,37.78
2023-01-26T13:59:25.860Z,37.98
2023-01-26T14:01:54.638Z,38.18
2023-01-26T14:04:23.695Z,37.92
2023-01-26T14:07:15.586Z,38.02
2023-01-26T14:09:48.796Z,38.09
2023-01-26T14:12:42.793Z,38.41
2023-01-26T14:15:24.579Z,38.20
2023-01-26T14:17:56.718Z,38.55
2023-01-26T14:20:32.964Z,38.33
2023-01-26T14:23:10.230Z,38.31
2023-01-26T14:25:38.148Z,38.76
2023-01-26T14:28:04.758Z,38.57
2023-01-26T14:30:34.249Z,38.62
2023-01-26T14:33:04.986Z,38.81
2023-01-26T14:35:32.253Z,38.80
2023-01-26T14:38:13.433Z,39.02
2023-01-26T14:40:49.110Z,39.12
2023-01-26T14:43:15.829Z,39.01
2023-01-26T14:45:55.613Z,38.94
2023-01-26T14:48:29.165Z,39.10
2023-01-26T14:50:56.301Z,39.09
2023-01-26T14:53:25.304Z,39.17
2023-01-26T14:55:53.584Z,39.29
2023-01-26T14:58:28.127Z,38.37
2023-01-26T15:00:58.440Z,37.43
2023-01-26T15:03:34.115Z,36.96
2023-01-26T15:06:21.253Z,36.06
2023-01-26T15:09:05.275Z,35.41
2023-01-26T15:11:58.527Z,35.19
2023-01-26T15:14:38.370Z,34.75
2023-01-26T15:17:05.812Z,34.89
2023-01-26T15:19:40.407Z,34.73
2023-01-26T15:22:20.745Z,34.70
2023-01-26T15:24:58.882Z,34.72
2023-01-26T15:27:31.183Z,34.82
2023-01-26T15:29:59.716Z,34.58
2023-01-26T15:32:32.305Z,34.56
2023-01-26T15:35:32.391Z,34.50
2023-01-26T15:38:06.377Z,34.62
2023-01-26T15:40:33.011Z,34.81
2023-01-26T15:43:12.407Z,34.71
2023-01-26T15:45:52.212Z,34.95
2023-01-26T15:48:19.426Z,34.80
2023-01-26T15:50:48.417Z,34.62
2023-01-26T15:53:17.003Z,34.90
2023-01-26T15:55:44.341Z,34.45
2023-01-26T15:58:11.273Z,34.77
2023-01-26T16:00:39.110Z,34.79
2023-01-26T16:03:13.877Z,34.90
2023-01-26T16:05:40.486Z,35.17
2023-01-26T16:08:06.985Z,34.86
2023-01-26T16:10:34.524Z,35.14
2023-01-26T16:13:01.049Z,34.99
2023-01-26T16:15:39.422Z,35.13
2023-01-26T16:18:06.252Z,34.74
2023-01-26T16:20:34.093Z,34.92
2023-01-26T16:23:00.864Z,34.97
2023-01-26T16:25:29.893Z,34.74
2023-01-26T16:27:57.963Z,35.01
2023-01-26T16:30:25.381Z,35.01
2023-01-26T16:32:53.045Z,35.73
2023-01-26T16:35:22.896Z,35.78
2023-01-26T16:37:49.824Z,36.21
2023-01-26T16:40:18.746Z,36.22
2023-01-26T16:42:49.676Z,36.23
2023-01-26T16:45:20.194Z,36.42
2023-01-26T16:47:49.796Z,36.58
2023-01-26T16:50:16.597Z,36.88
2023-01-26T16:52:43.215Z,36.99
2023-01-26T16:55:13.688Z,37.19
2023-01-26T16:57:41.852Z,37.54
2023-01-26T17:00:19.738Z,37.47
2023-01-26T17:02:52.037Z,37.95
2023-01-26T17:05:19.947Z,37.81
2023-01-26T17:07:46.856Z,37.89
2023-01-26T17:10:15.217Z,38.12
2023-01-26T17:12:42.336Z,38.22
2023-01-26T17:15:12.002Z,38.18
2023-01-26T17:17:38.772Z,38.15
2023-01-26T17:20:18.405Z,38.19
2023-01-26T17:22:45.826Z,38.36
2023-01-26T17:25:16.017Z,38.63
2023-01-26T17:27:43.712Z,38.77
2023-01-26T17:30:10.977Z,38.78
2023-01-26T17:32:37.743Z,38.15
2023-01-26T17:35:04.487Z,38.11
2023-01-26T17:37:31.586Z,38.17
2023-01-26T17:39:58.226Z,37.81
2023-01-26T17:42:25.876Z,37.64
2023-01-26T17:44:52.453Z,37.64
2023-01-26T17:47:19.159Z,37.23
2023-01-26T17:49:45.666Z,37.32
2023-01-26T17:52:14.369Z,36.97
2023-01-26T17:54:41.280Z,37.26
2023-01-26T17:57:08.621Z,36.79
2023-01-26T17:59:35.241Z,36.83
2023-01-26T18:02:02.640Z,36.58
2023-01-26T18:04:31.336Z,36.52
2023-01-26T18:09:19.112Z,36.26
2023-01-26T18:11:45.897Z,36.29
2023-01-26T18:14:12.437Z,36.30
2023-01-26T18:16:39.097Z,36.19
2023-01-26T18:19:05.870Z,35.88
2023-01-26T18:21:34.774Z,35.77
2023-01-26T18:24:03.807Z,35.93
2023-01-26T18:26:33.789Z,35.83
2023-01-26T18:29:00.500Z,35.79
2023-01-26T18:31:33.161Z,35.56
2023-01-26T18:34:00.843Z,35.74
2023-01-26T18:36:28.574Z,35.53
2023-01-26T18:38:58.639Z,35.43
2023-01-26T18:41:26.447Z,35.22
2023-01-26T18:43:54.957Z,35.23
2023-01-26T18:46:22.475Z,35.37
2023-01-26T18:48:49.517Z,35.08
2023-01-26T18:51:18.200Z,35.05
2023-01-26T18:53:45.315Z,35.06
2023-01-26T18:56:14.173Z,34.93
2023-01-26T18:58:41.932Z,34.87
2023-01-26T19:01:12.969Z,35.27
2023-01-26T19:03:41.635Z,34.92
2023-01-26T19:06:09.278Z,34.82
2023-01-26T19:08:35.923Z,35.00
2023-01-26T19:11:07.489Z,34.74
2023-01-26T19:13:35.909Z,35.21
2023-01-26T19:16:02.723Z,34.94
2023-01-26T19:18:29.480Z,35.13
2023-01-26T19:21:00.979Z,34.83
2023-01-26T19:23:31.516Z,34.98
2023-01-26T19:25:58.255Z,34.80
2023-01-26T19:28:24.778Z,34.89
2023-01-26T19:30:51.443Z,34.93
2023-01-26T19:33:28.807Z,34.92
2023-01-26T19:35:56.607Z,34.79
2023-01-26T19:38:24.033Z,35.00
2023-01-26T19:40:52.090Z,35.07
2023-01-26T19:43:23.807Z,35.12
2023-01-26T19:45:55.645Z,35.43
2023-01-26T19:48:24.537Z,35.63
2023-01-26T19:51:24.235Z,35.66
2023-01-26T19:53:55.179Z,35.86
2023-01-26T19:56:25.907Z,36.11
2023-01-26T19:58:54.510Z,36.38
2023-01-26T20:01:21.835Z,36.20
2023-01-26T20:03:53.459Z,36.55
2023-01-26T20:06:23.219Z,36.69
2023-01-26T20:08:49.964Z,36.81
2023-01-26T20:11:17.378Z,36.76
2023-01-26T20:13:43.966Z,37.14
2023-01-26T20:16:12.127Z,36.95
2023-01-26T20:18:38.816Z,37.19
2023-01-26T20:21:07.075Z,37.09
2023-01-26T20:23:34.745Z,37.49
2023-01-26T20:26:09.371Z,37.31
2023-01-26T20:28:37.816Z,37.27
2023-01-26T20:31:16.991Z,37.23
2023-01-26T20:33:47.535Z,37.39
2023-01-26T20:36:18.426Z,37.44
2023-01-26T20:38:48.350Z,37.36
2023-01-26T20:41:18.608Z,37.41
2023-01-26T20:43:58.796Z,37.09
2023-01-26T20:46:29.532Z,37.13
2023-01-26T20:48:57.079Z,37.13
2023-01-26T20:53:36.621Z,37.01
2023-01-26T20:56:09.045Z,36.86
2023-01-26T21:00:54.358Z,36.83
2023-01-26T21:03:21.146Z,37.12
2023-01-26T21:05:50.007Z,36.82
2023-01-26T21:08:16.607Z,36.88
2023-01-26T21:10:46.065Z,37.02
2023-01-26T21:13:12.754Z,37.01
2023-01-26T21:15:40.157Z,37.06
2023-01-26T21:18:06.724Z,37.22
2023-01-26T21:20:33.282Z,37.23
2023-01-26T21:23:00.010Z,37.27
2023-01-26T21:25:26.841Z,37.13
2023-01-26T21:27:53.589Z,37.15
2023-01-26T21:30:20.419Z,37.02
2023-01-26T21:32:47.355Z,36.99
2023-01-26T21:35:15.976Z,37.26
2023-01-26T21:37:42.723Z,37.58
2023-01-26T21:40:10.542Z,37.57
2023-01-26T21:42:37.469Z,37.33
2023-01-26T21:45:23.165Z,37.49
2023-01-26T21:48:09.773Z,37.44
2023-01-26T21:50:56.044Z,36.81
2023-01-26T21:53:25.585Z,36.80
2023-01-26T21:55:52.106Z,36.75
2023-01-26T21:58:37.561Z,36.98
2023-01-26T22:01:09.098Z,36.84
2023-01-26T22:03:36.792Z,36.50
2023-01-26T22:06:04.305Z,36.77
2023-01-26T22:08:31.108Z,36.60
2023-01-26T22:10:57.948Z,36.77
2023-01-26T22:13:26.371Z,36.66
2023-01-26T22:15:52.869Z,36.40
2023-01-26T22:18:19.504Z,36.49
2023-01-26T22:20:46.268Z,36.42
2023-01-26T22:23:13.866Z,36.64
2023-01-26T22:25:41.154Z,36.36
2023-01-26T22:28:08.290Z,36.37
2023-01-26T22:30:34.909Z,36.55
2023-01-26T22:33:01.792Z,36.66
2023-01-26T22:35:30.118Z,36.46
2023-01-26T22:37:56.978Z,36.29
2023-01-26T22:40:24.726Z,36.08
2023-01-26T22:42:54.429Z,36.12
2023-01-26T22:45:21.577Z,36.40
2023-01-26T22:47:49.121Z,36.33
2023-01-26T22:50:16.660Z,36.25
2023-01-26T22:52:46.223Z,36.08
2023-01-26T22:55:12.927Z,36.18
2023-01-26T22:57:39.727Z,36.39
2023-01-26T23:00:07.104Z,36.13
2023-01-26T23:02:33.755Z,36.02
2023-01-26T23:05:00.278Z,35.96
2023-01-26T23:07:26.859Z,36.21
2023-01-26T23:09:53.378Z,36.22
2023-01-26T23:12:19.959Z,36.02
2023-01-26T23:14:46.464Z,35.91
2023-01-26T23:17:13.235Z,36.18
2023-01-26T23:19:39.805Z,36.05
2023-01-26T23:22:06.543Z,35.84
2023-01-26T23:24:33.085Z,36.12
2023-01-26T23:26:59.815Z,36.04
2023-01-26T23:29:26.446Z,35.81
2023-01-26T23:31:53.532Z,35.86
2023-01-26T23:34:21.232Z,35.94
2023-01-26T23:36:47.921Z,35.85
2023-01-26T23:39:14.636Z,35.65
2023-01-26T23:41:41.492Z,35.82
2023-01-26T23:44:08.019Z,35.88
2023-01-26T23:46:34.676Z,35.88
2023-01-26T23:49:01.588Z,35.55
2023-01-26T23:51:28.220Z,35.61
2023-01-26T23:53:55.708Z,35.34
2023-01-26T23:56:23.333Z,35.53
2023-01-26T23:58:49.885Z,35.37
